Terminal Aerodrome Forecast
Issued by NWS

Home | Current Version | Previous Version | Text Only | Print | Product List | Glossary On
Versions: 1 2 3 4 5 6 7 8 9 10 11 12 13 14 15 16 17 18 19 20
055
FTUS43 KLSX 270528
TAFSUS
TAF
KSUS 270528Z 2706/2806 VRB04KT P6SM VCTS SCT035CB
     FM270800 18006KT 6SM -SHRA VCTS BKN035CB
      TEMPO 2709/2713 2SM TSRA OVC025CB
     FM271600 22006KT P6SM OVC040
     FM272000 24007KT P6SM VCTS BKN040CB
     FM280000 30007KT P6SM BKN040=

USA.gov is the U.S. government's official web portal to all federal, state and local government web resources and services.